CheckWX is a tool to help pilots better visualize weather data.  It is not intended as a substitute for an official pre-flight weather briefing.

15:20:51 UTC

LFPN TAF
Toussus-le-Noble Airport
Toussus-le-Noble, France
TAF LFPN 201400Z 2015/2024 33008KT 9999 BKN030 PROB30 TEMPO 2015/2017 SCT030TCU BECMG 2017/2019 CAVOK

May-20@
15:00 UTC

May-20 @ 15:00 UTC

May-20@
17:00 UTC

May-20 @ 17:00 UTC

TAF LFPN 201400Z 2015/2024 33008KT 9999 BKN030
Wind
  • 330° at 8 KTS
Cloud Levels
  • Broken at 3,000' AGL

May-20@
15:00 UTC

May-20 @ 15:00 UTC

May-20@
17:00 UTC

May-20 @ 17:00 UTC

PROB30 TEMPO 2015/2017 SCT030TCU

Temporary - 30% Likelihood

Temporary - 30% Likelihood during this time.

Cloud Levels
  • Scattered at 3,000' AGL

May-20@
17:00 UTC

May-20 @ 17:00 UTC

May-21@
00:00 UTC

May-21 @ 00:00 UTC

BECMG 2017/2019 CAVOK

Becoming

Becoming Conditions expected by Mon, May 20, 2019 @ 19:00 UTC

Wind
  • 330° at 8 KTS
Conditions
No significant weather
Cloud Levels
  • No significant clouds